sensor_id;sensor_type;location;lat;lon;timestamp;pressure;altitude;pressure_sealevel;temperature;humidity
14383;BME280;7275;50.328;8.720;2023-02-20T00:00:30;100764.72;;;14.07;43.57
14383;BME280;7275;50.328;8.720;2023-02-20T00:02:59;100760.44;;;14.03;43.46
14383;BME280;7275;50.328;8.720;2023-02-20T00:05:27;100758.81;;;13.99;43.67
14383;BME280;7275;50.328;8.720;2023-02-20T00:07:54;100762.44;;;13.97;43.55
14383;BME280;7275;50.328;8.720;2023-02-20T00:10:22;100752.81;;;13.93;43.46
14383;BME280;7275;50.328;8.720;2023-02-20T00:12:50;100758.22;;;13.90;43.60
14383;BME280;7275;50.328;8.720;2023-02-20T00:15:19;100765.50;;;13.85;43.56
14383;BME280;7275;50.328;8.720;2023-02-20T00:17:47;100764.78;;;13.80;43.58
14383;BME280;7275;50.328;8.720;2023-02-20T00:20:18;100769.41;;;13.75;43.63
14383;BME280;7275;50.328;8.720;2023-02-20T00:22:47;100764.19;;;13.72;43.74
14383;BME280;7275;50.328;8.720;2023-02-20T00:25:15;100756.28;;;13.69;43.64
14383;BME280;7275;50.328;8.720;2023-02-20T00:27:43;100763.44;;;13.67;43.64
14383;BME280;7275;50.328;8.720;2023-02-20T00:30:15;100759.06;;;13.66;43.68
14383;BME280;7275;50.328;8.720;2023-02-20T00:32:44;100750.34;;;13.60;43.73
14383;BME280;7275;50.328;8.720;2023-02-20T00:35:12;100761.13;;;13.56;43.67
14383;BME280;7275;50.328;8.720;2023-02-20T00:37:41;100767.53;;;13.50;43.72
14383;BME280;7275;50.328;8.720;2023-02-20T00:40:10;100766.84;;;13.44;43.75
14383;BME280;7275;50.328;8.720;2023-02-20T00:42:37;100759.84;;;13.41;43.78
14383;BME280;7275;50.328;8.720;2023-02-20T00:45:05;100762.66;;;13.37;43.72
14383;BME280;7275;50.328;8.720;2023-02-20T00:47:33;100766.38;;;13.31;43.86
14383;BME280;7275;50.328;8.720;2023-02-20T00:50:01;100757.72;;;13.25;43.77
14383;BME280;7275;50.328;8.720;2023-02-20T00:52:29;100761.38;;;13.21;43.84
14383;BME280;7275;50.328;8.720;2023-02-20T00:54:58;100757.09;;;13.17;43.88
14383;BME280;7275;50.328;8.720;2023-02-20T00:57:25;100758.97;;;13.13;43.85
14383;BME280;7275;50.328;8.720;2023-02-20T00:59:53;100748.41;;;13.12;43.80
14383;BME280;7275;50.328;8.720;2023-02-20T01:02:21;100756.41;;;13.10;43.90
14383;BME280;7275;50.328;8.720;2023-02-20T01:04:48;100768.00;;;13.08;43.59
14383;BME280;7275;50.328;8.720;2023-02-20T01:07:16;100747.78;;;13.02;43.82
14383;BME280;7275;50.328;8.720;2023-02-20T01:09:44;100753.16;;;13.01;43.79
14383;BME280;7275;50.328;8.720;2023-02-20T01:12:13;100755.03;;;12.97;43.71
14383;BME280;7275;50.328;8.720;2023-02-20T01:14:40;100755.09;;;12.94;43.85
14383;BME280;7275;50.328;8.720;2023-02-20T01:17:08;100755.22;;;12.91;43.90
14383;BME280;7275;50.328;8.720;2023-02-20T01:19:35;100764.84;;;12.94;43.72
14383;BME280;7275;50.328;8.720;2023-02-20T01:22:03;100748.91;;;12.94;43.72
14383;BME280;7275;50.328;8.720;2023-02-20T01:24:34;100747.25;;;12.91;43.82
14383;BME280;7275;50.328;8.720;2023-02-20T01:27:01;100738.47;;;12.89;43.92
14383;BME280;7275;50.328;8.720;2023-02-20T01:29:30;100747.34;;;12.88;43.97
14383;BME280;7275;50.328;8.720;2023-02-20T01:31:58;100757.19;;;12.84;43.71
14383;BME280;7275;50.328;8.720;2023-02-20T01:34:26;100748.41;;;12.81;44.02
14383;BME280;7275;50.328;8.720;2023-02-20T01:36:54;100752.06;;;12.78;44.05
14383;BME280;7275;50.328;8.720;2023-02-20T01:39:23;100738.00;;;12.75;43.73
14383;BME280;7275;50.328;8.720;2023-02-20T01:41:55;100754.84;;;12.72;43.89
14383;BME280;7275;50.328;8.720;2023-02-20T01:44:27;100741.69;;;12.69;43.79
14383;BME280;7275;50.328;8.720;2023-02-20T01:46:56;100744.44;;;12.66;43.70
14383;BME280;7275;50.328;8.720;2023-02-20T01:49:29;100735.75;;;12.61;43.81
14383;BME280;7275;50.328;8.720;2023-02-20T01:52:04;100733.22;;;12.57;43.77
14383;BME280;7275;50.328;8.720;2023-02-20T01:54:34;100728.06;;;12.52;43.79
14383;BME280;7275;50.328;8.720;2023-02-20T01:57:04;100715.75;;;12.50;43.94
14383;BME280;7275;50.328;8.720;2023-02-20T01:59:36;100725.53;;;12.48;44.15
14383;BME280;7275;50.328;8.720;2023-02-20T02:02:06;100716.75;;;12.46;43.99
14383;BME280;7275;50.328;8.720;2023-02-20T02:04:35;100707.94;;;12.45;44.16
14383;BME280;7275;50.328;8.720;2023-02-20T02:07:04;100713.16;;;12.48;44.00
14383;BME280;7275;50.328;8.720;2023-02-20T02:09:37;100704.22;;;12.51;44.00
14383;BME280;7275;50.328;8.720;2023-02-20T02:12:06;100712.09;;;12.54;43.97
14383;BME280;7275;50.328;8.720;2023-02-20T02:14:34;100709.34;;;12.57;43.96
14383;BME280;7275;50.328;8.720;2023-02-20T02:17:17;100713.06;;;12.51;43.99
14383;BME280;7275;50.328;8.720;2023-02-20T02:20:06;100715.91;;;12.45;44.08
14383;BME280;7275;50.328;8.720;2023-02-20T02:23:10;100715.03;;;12.43;43.90
14383;BME280;7275;50.328;8.720;2023-02-20T02:25:54;100715.03;;;12.45;44.04
14383;BME280;7275;50.328;8.720;2023-02-20T02:28:57;100719.41;;;12.46;43.65
14383;BME280;7275;50.328;8.720;2023-02-20T02:31:48;100719.38;;;12.47;43.61
14383;BME280;7275;50.328;8.720;2023-02-20T02:37:26;100713.38;;;12.41;43.62
14383;BME280;7275;50.328;8.720;2023-02-20T02:40:01;100706.50;;;12.34;43.51
14383;BME280;7275;50.328;8.720;2023-02-20T02:42:37;100705.59;;;12.35;43.73
14383;BME280;7275;50.328;8.720;2023-02-20T02:45:11;100696.84;;;12.31;43.97
14383;BME280;7275;50.328;8.720;2023-02-20T02:47:45;100696.97;;;12.27;43.77
14383;BME280;7275;50.328;8.720;2023-02-20T02:50:17;100694.41;;;12.24;43.71
14383;BME280;7275;50.328;8.720;2023-02-20T02:52:48;100698.06;;;12.20;44.05
14383;BME280;7275;50.328;8.720;2023-02-20T02:55:20;100687.59;;;12.15;44.12
14383;BME280;7275;50.328;8.720;2023-02-20T02:57:48;100679.69;;;12.12;44.03
14383;BME280;7275;50.328;8.720;2023-02-20T03:00:19;100673.50;;;12.13;44.23
14383;BME280;7275;50.328;8.720;2023-02-20T03:02:53;100673.50;;;12.13;44.10
14383;BME280;7275;50.328;8.720;2023-02-20T03:05:27;100672.72;;;12.10;43.99
14383;BME280;7275;50.328;8.720;2023-02-20T03:08:09;100678.06;;;12.08;44.14
14383;BME280;7275;50.328;8.720;2023-02-20T03:10:41;100675.44;;;12.07;44.31
14383;BME280;7275;50.328;8.720;2023-02-20T03:13:10;100674.56;;;12.08;44.29
14383;BME280;7275;50.328;8.720;2023-02-20T03:15:42;100677.22;;;12.08;44.36
14383;BME280;7275;50.328;8.720;2023-02-20T03:18:15;100673.69;;;12.07;44.21
14383;BME280;7275;50.328;8.720;2023-02-20T03:20:48;100684.28;;;12.07;44.28
14383;BME280;7275;50.328;8.720;2023-02-20T03:23:22;100683.34;;;12.10;44.34
14383;BME280;7275;50.328;8.720;2023-02-20T03:25:53;100687.72;;;12.11;44.63
14383;BME280;7275;50.328;8.720;2023-02-20T03:28:24;100699.97;;;12.15;44.39
14383;BME280;7275;50.328;8.720;2023-02-20T03:30:55;100691.25;;;12.11;44.40
14383;BME280;7275;50.328;8.720;2023-02-20T03:33:30;100693.00;;;12.11;44.49
14383;BME280;7275;50.328;8.720;2023-02-20T03:36:22;100701.97;;;12.07;44.67
14383;BME280;7275;50.328;8.720;2023-02-20T03:39:14;100698.59;;;12.00;44.50
14383;BME280;7275;50.328;8.720;2023-02-20T03:42:03;100697.00;;;11.94;44.95
14383;BME280;7275;50.328;8.720;2023-02-20T03:44:50;100693.59;;;11.89;44.97
14383;BME280;7275;50.328;8.720;2023-02-20T03:47:22;100693.63;;;11.88;45.16
14383;BME280;7275;50.328;8.720;2023-02-20T03:49:53;100697.19;;;11.87;44.80
14383;BME280;7275;50.328;8.720;2023-02-20T03:52:22;100694.53;;;11.87;45.11
14383;BME280;7275;50.328;8.720;2023-02-20T03:54:52;100691.88;;;11.88;45.16
14383;BME280;7275;50.328;8.720;2023-02-20T03:57:23;100678.50;;;11.91;44.87
14383;BME280;7275;50.328;8.720;2023-02-20T03:59:56;100677.63;;;11.92;45.22
14383;BME280;7275;50.328;8.720;2023-02-20T04:02:27;100667.84;;;11.94;45.61
14383;BME280;7275;50.328;8.720;2023-02-20T04:05:00;100680.16;;;11.97;45.34
14383;BME280;7275;50.328;8.720;2023-02-20T04:07:36;100667.69;;;12.00;45.81
14383;BME280;7275;50.328;8.720;2023-02-20T04:10:11;100670.38;;;11.99;45.82
14383;BME280;7275;50.328;8.720;2023-02-20T04:12:42;100672.16;;;11.98;45.50
14383;BME280;7275;50.328;8.720;2023-02-20T04:15:11;100667.75;;;11.97;45.76
14383;BME280;7275;50.328;8.720;2023-02-20T04:17:47;100681.88;;;11.98;45.93
14383;BME280;7275;50.328;8.720;2023-02-20T04:20:17;100685.44;;;11.97;45.52
14383;BME280;7275;50.328;8.720;2023-02-20T04:22:47;100683.63;;;11.99;45.82
14383;BME280;7275;50.328;8.720;2023-02-20T04:25:24;100679.22;;;11.98;45.78
14383;BME280;7275;50.328;8.720;2023-02-20T04:27:54;100686.41;;;11.94;45.61
14383;BME280;7275;50.328;8.720;2023-02-20T04:30:22;100683.03;;;11.88;45.82
14383;BME280;7275;50.328;8.720;2023-02-20T04:32:50;100677.03;;;11.81;45.79
14383;BME280;7275;50.328;8.720;2023-02-20T04:35:19;100672.84;;;11.73;45.89
14383;BME280;7275;50.328;8.720;2023-02-20T04:37:47;100677.44;;;11.66;45.66
14383;BME280;7275;50.328;8.720;2023-02-20T04:40:20;100685.53;;;11.59;45.67
14383;BME280;7275;50.328;8.720;2023-02-20T04:42:48;100678.66;;;11.52;45.95
14383;BME280;7275;50.328;8.720;2023-02-20T04:45:16;100681.44;;;11.47;45.85
14383;BME280;7275;50.328;8.720;2023-02-20T04:47:44;100685.03;;;11.43;45.97
14383;BME280;7275;50.328;8.720;2023-02-20T04:50:15;100683.47;;;11.36;46.43
14383;BME280;7275;50.328;8.720;2023-02-20T04:52:45;100673.06;;;11.28;46.28
14383;BME280;7275;50.328;8.720;2023-02-20T04:55:13;100674.09;;;11.23;46.58
14383;BME280;7275;50.328;8.720;2023-02-20T04:57:42;100683.94;;;11.18;46.43
14383;BME280;7275;50.328;8.720;2023-02-20T05:00:11;100685.78;;;11.14;46.18
14383;BME280;7275;50.328;8.720;2023-02-20T05:02:40;100671.78;;;11.09;46.43
14383;BME280;7275;50.328;8.720;2023-02-20T05:05:15;100670.97;;;11.07;46.50
14383;BME280;7275;50.328;8.720;2023-02-20T05:07:44;100665.84;;;11.00;46.28
14383;BME280;7275;50.328;8.720;2023-02-20T05:10:13;100670.25;;;10.99;46.27
14383;BME280;7275;50.328;8.720;2023-02-20T05:12:42;100657.16;;;10.95;46.38
14383;BME280;7275;50.328;8.720;2023-02-20T05:15:10;100670.47;;;10.90;46.61
14383;BME280;7275;50.328;8.720;2023-02-20T05:17:37;100671.47;;;10.86;46.79
14383;BME280;7275;50.328;8.720;2023-02-20T05:20:06;100666.28;;;10.82;46.58
14383;BME280;7275;50.328;8.720;2023-02-20T05:22:35;100674.25;;;10.79;46.70
14383;BME280;7275;50.328;8.720;2023-02-20T05:25:02;100677.88;;;10.76;46.85
14383;BME280;7275;50.328;8.720;2023-02-20T05:27:30;100669.94;;;10.75;47.17
14383;BME280;7275;50.328;8.720;2023-02-20T05:30:00;100673.53;;;10.72;47.28
14383;BME280;7275;50.328;8.720;2023-02-20T05:32:29;100673.50;;;10.74;47.21
14383;BME280;7275;50.328;8.720;2023-02-20T05:34:57;100674.41;;;10.73;47.23
14383;BME280;7275;50.328;8.720;2023-02-20T05:37:26;100662.94;;;10.72;47.57
14383;BME280;7275;50.328;8.720;2023-02-20T05:39:53;100664.69;;;10.73;47.61
14383;BME280;7275;50.328;8.720;2023-02-20T05:42:21;100659.38;;;10.75;47.61
14383;BME280;7275;50.328;8.720;2023-02-20T05:44:49;100669.00;;;10.77;47.43
14383;BME280;7275;50.328;8.720;2023-02-20T05:47:18;100666.31;;;10.80;47.56
14383;BME280;7275;50.328;8.720;2023-02-20T05:49:45;100660.09;;;10.81;47.79
14383;BME280;7275;50.328;8.720;2023-02-20T05:52:13;100660.88;;;10.85;47.50
14383;BME280;7275;50.328;8.720;2023-02-20T05:54:41;100664.41;;;10.85;47.66
14383;BME280;7275;50.328;8.720;2023-02-20T05:57:10;100660.03;;;10.84;47.73
14383;BME280;7275;50.328;8.720;2023-02-20T05:59:38;100650.44;;;10.79;47.43
14383;BME280;7275;50.328;8.720;2023-02-20T06:02:06;100644.28;;;10.80;47.55
14383;BME280;7275;50.328;8.720;2023-02-20T06:04:35;100640.84;;;10.75;47.92
14383;BME280;7275;50.328;8.720;2023-02-20T06:07:02;100644.44;;;10.72;47.90
14383;BME280;7275;50.328;8.720;2023-02-20T06:09:30;100634.81;;;10.68;47.70
14383;BME280;7275;50.328;8.720;2023-02-20T06:11:59;100634.97;;;10.64;47.71
14383;BME280;7275;50.328;8.720;2023-02-20T06:14:27;100624.44;;;10.61;47.57
14383;BME280;7275;50.328;8.720;2023-02-20T06:16:56;100621.00;;;10.57;48.04
14383;BME280;7275;50.328;8.720;2023-02-20T06:19:24;100629.00;;;10.54;48.22
14383;BME280;7275;50.328;8.720;2023-02-20T06:21:54;100626.38;;;10.53;48.14
14383;BME280;7275;50.328;8.720;2023-02-20T06:24:24;100624.69;;;10.50;47.94
14383;BME280;7275;50.328;8.720;2023-02-20T06:26:51;100630.00;;;10.49;47.92
14383;BME280;7275;50.328;8.720;2023-02-20T06:29:19;100630.94;;;10.46;47.92
14383;BME280;7275;50.328;8.720;2023-02-20T06:31:47;100634.50;;;10.45;47.95
14383;BME280;7275;50.328;8.720;2023-02-20T06:34:16;100640.63;;;10.45;47.94
14383;BME280;7275;50.328;8.720;2023-02-20T06:36:44;100634.50;;;10.45;47.83
14383;BME280;7275;50.328;8.720;2023-02-20T06:39:13;100625.72;;;10.43;48.16
14383;BME280;7275;50.328;8.720;2023-02-20T06:41:41;100628.38;;;10.41;47.92
14383;BME280;7275;50.328;8.720;2023-02-20T06:44:09;100633.63;;;10.43;48.33
14383;BME280;7275;50.328;8.720;2023-02-20T06:46:37;100630.06;;;10.45;48.40
14383;BME280;7275;50.328;8.720;2023-02-20T06:49:05;100632.69;;;10.47;48.35
14383;BME280;7275;50.328;8.720;2023-02-20T06:51:33;100644.06;;;10.51;48.69
14383;BME280;7275;50.328;8.720;2023-02-20T06:54:02;100650.13;;;10.54;48.51
14383;BME280;7275;50.328;8.720;2023-02-20T06:56:33;100645.66;;;10.58;48.66
14383;BME280;7275;50.328;8.720;2023-02-20T06:59:02;100648.25;;;10.61;48.55
14383;BME280;7275;50.328;8.720;2023-02-20T07:01:36;100646.38;;;10.64;48.69
14383;BME280;7275;50.328;8.720;2023-02-20T07:04:06;100648.09;;;10.67;48.67
14383;BME280;7275;50.328;8.720;2023-02-20T07:06:33;100639.28;;;10.68;48.77
14383;BME280;7275;50.328;8.720;2023-02-20T07:09:02;100643.59;;;10.70;48.96
14383;BME280;7275;50.328;8.720;2023-02-20T07:11:30;100645.31;;;10.73;48.61
14383;BME280;7275;50.328;8.720;2023-02-20T07:13:58;100646.16;;;10.75;48.84
14383;BME280;7275;50.328;8.720;2023-02-20T07:16:26;100633.78;;;10.75;48.70
14383;BME280;7275;50.328;8.720;2023-02-20T07:18:54;100639.88;;;10.79;48.78
14383;BME280;7275;50.328;8.720;2023-02-20T07:21:21;100640.66;;;10.84;48.98
14383;BME280;7275;50.328;8.720;2023-02-20T07:23:49;100632.56;;;10.90;48.95
14383;BME280;7275;50.328;8.720;2023-02-20T07:26:17;100633.34;;;10.95;49.34
14383;BME280;7275;50.328;8.720;2023-02-20T07:28:47;100623.50;;;11.00;49.16
14383;BME280;7275;50.328;8.720;2023-02-20T07:31:16;100615.47;;;11.04;49.28
14383;BME280;7275;50.328;8.720;2023-02-20T07:33:43;100620.63;;;11.09;49.27
14383;BME280;7275;50.328;8.720;2023-02-20T07:36:12;100624.91;;;11.14;49.52
14383;BME280;7275;50.328;8.720;2023-02-20T07:38:41;100625.72;;;11.18;49.24
14383;BME280;7275;50.328;8.720;2023-02-20T07:41:09;100629.16;;;11.21;49.59
14383;BME280;7275;50.328;8.720;2023-02-20T07:43:37;100627.22;;;11.28;49.76
14383;BME280;7275;50.328;8.720;2023-02-20T07:46:04;100621.66;;;11.37;49.53
14383;BME280;7275;50.328;8.720;2023-02-20T07:48:33;100611.78;;;11.45;49.75
14383;BME280;7275;50.328;8.720;2023-02-20T07:51:02;100624.72;;;11.56;49.76
14383;BME280;7275;50.328;8.720;2023-02-20T07:53:30;100615.75;;;11.61;49.47
14383;BME280;7275;50.328;8.720;2023-02-20T07:55:58;100617.31;;;11.70;49.33
14383;BME280;7275;50.328;8.720;2023-02-20T07:58:25;100606.56;;;11.76;49.70
14383;BME280;7275;50.328;8.720;2023-02-20T08:00:53;100607.28;;;11.81;49.34
14383;BME280;7275;50.328;8.720;2023-02-20T08:03:20;100601.97;;;11.82;49.26
14383;BME280;7275;50.328;8.720;2023-02-20T08:05:49;100591.19;;;11.87;49.22
14383;BME280;7275;50.328;8.720;2023-02-20T08:08:17;100601.72;;;11.90;49.34
14383;BME280;7275;50.328;8.720;2023-02-20T08:10:45;100590.13;;;11.94;49.27
14383;BME280;7275;50.328;8.720;2023-02-20T08:13:16;100588.22;;;11.99;49.39
14383;BME280;7275;50.328;8.720;2023-02-20T08:15:43;100585.28;;;12.08;49.52
14383;BME280;7275;50.328;8.720;2023-02-20T08:18:11;100588.56;;;12.18;49.82
14383;BME280;7275;50.328;8.720;2023-02-20T08:20:50;100580.19;;;12.31;50.15
14383;BME280;7275;50.328;8.720;2023-02-20T08:23:20;100583.19;;;12.48;50.15
14383;BME280;7275;50.328;8.720;2023-02-20T08:25:48;100573.81;;;12.64;49.92
14383;BME280;7275;50.328;8.720;2023-02-20T08:28:16;100569.81;;;12.79;49.99
14383;BME280;7275;50.328;8.720;2023-02-20T08:30:44;100578.09;;;12.96;49.78
14383;BME280;7275;50.328;8.720;2023-02-20T08:33:11;100575.84;;;13.12;49.72
14383;BME280;7275;50.328;8.720;2023-02-20T08:35:39;100577.16;;;13.25;49.78
14383;BME280;7275;50.328;8.720;2023-02-20T08:38:22;100582.00;;;13.38;49.55
14383;BME280;7275;50.328;8.720;2023-02-20T08:40:50;100569.97;;;13.53;49.71
14383;BME280;7275;50.328;8.720;2023-02-20T08:43:18;100571.22;;;13.68;49.68
14383;BME280;7275;50.328;8.720;2023-02-20T08:45:46;100564.53;;;13.81;49.41
14383;BME280;7275;50.328;8.720;2023-02-20T08:48:14;100562.34;;;13.92;49.29
14383;BME280;7275;50.328;8.720;2023-02-20T08:50:41;100551.28;;;14.04;49.24
14383;BME280;7275;50.328;8.720;2023-02-20T08:53:10;100552.66;;;14.14;49.23
14383;BME280;7275;50.328;8.720;2023-02-20T08:55:38;100557.50;;;14.26;49.03
14383;BME280;7275;50.328;8.720;2023-02-20T08:58:05;100552.44;;;14.43;49.28
14383;BME280;7275;50.328;8.720;2023-02-20T09:00:33;100557.00;;;14.61;49.05
14383;BME280;7275;50.328;8.720;2023-02-20T09:03:01;100563.44;;;14.77;48.72
14383;BME280;7275;50.328;8.720;2023-02-20T09:05:33;100563.75;;;14.91;48.43
14383;BME280;7275;50.328;8.720;2023-02-20T09:08:04;100559.78;;;15.01;47.90
14383;BME280;7275;50.328;8.720;2023-02-20T09:10:33;100555.06;;;15.08;47.68
14383;BME280;7275;50.328;8.720;2023-02-20T09:13:01;100555.72;;;15.13;47.38
14383;BME280;7275;50.328;8.720;2023-02-20T09:15:29;100558.28;;;15.16;47.20
14383;BME280;7275;50.328;8.720;2023-02-20T09:18:01;100563.34;;;15.22;47.26
14383;BME280;7275;50.328;8.720;2023-02-20T09:20:29;100569.13;;;15.32;46.63
14383;BME280;7275;50.328;8.720;2023-02-20T09:22:57;100566.19;;;15.38;46.79
14383;BME280;7275;50.328;8.720;2023-02-20T09:25:25;100563.31;;;15.44;46.90
14383;BME280;7275;50.328;8.720;2023-02-20T09:27:54;100573.47;;;15.56;46.42
14383;BME280;7275;50.328;8.720;2023-02-20T09:30:22;100574.84;;;15.64;46.63
14383;BME280;7275;50.328;8.720;2023-02-20T09:32:50;100573.94;;;15.84;46.60
14383;BME280;7275;50.328;8.720;2023-02-20T09:35:20;100565.28;;;16.18;46.50
14383;BME280;7275;50.328;8.720;2023-02-20T09:37:48;100576.56;;;16.43;46.27
14383;BME280;7275;50.328;8.720;2023-02-20T09:40:16;100565.03;;;16.97;46.38
14383;BME280;7275;50.328;8.720;2023-02-20T09:43:04;100557.56;;;17.56;46.01
14383;BME280;7275;50.328;8.720;2023-02-20T09:45:40;100549.28;;;18.26;45.46
14383;BME280;7275;50.328;8.720;2023-02-20T09:48:18;100543.59;;;18.94;44.90
14383;BME280;7275;50.328;8.720;2023-02-20T09:50:53;100560.38;;;19.43;44.05
14383;BME280;7275;50.328;8.720;2023-02-20T09:53:25;100553.72;;;19.78;43.26
14383;BME280;7275;50.328;8.720;2023-02-20T09:55:57;100540.41;;;20.05;42.51
14383;BME280;7275;50.328;8.720;2023-02-20T09:58:34;100544.75;;;20.22;41.95
14383;BME280;7275;50.328;8.720;2023-02-20T10:01:08;100545.69;;;20.35;41.50
14383;BME280;7275;50.328;8.720;2023-02-20T10:03:50;100532.16;;;20.50;41.51
14383;BME280;7275;50.328;8.720;2023-02-20T10:06:21;100540.84;;;20.68;41.11
14383;BME280;7275;50.328;8.720;2023-02-20T10:08:51;100539.31;;;20.91;40.79
14383;BME280;7275;50.328;8.720;2023-02-20T10:11:40;100542.16;;;21.28;40.57
14383;BME280;7275;50.328;8.720;2023-02-20T10:14:39;100529.44;;;21.82;40.67
14383;BME280;7275;50.328;8.720;2023-02-20T10:17:19;100514.19;;;22.44;40.08
14383;BME280;7275;50.328;8.720;2023-02-20T10:19:52;100516.88;;;23.04;39.03
14383;BME280;7275;50.328;8.720;2023-02-20T10:22:25;100508.59;;;23.53;38.70
14383;BME280;7275;50.328;8.720;2023-02-20T10:25:06;100510.59;;;23.95;38.35
14383;BME280;7275;50.328;8.720;2023-02-20T10:27:46;100493.81;;;24.25;37.23
14383;BME280;7275;50.328;8.720;2023-02-20T10:30:23;100484.31;;;24.52;36.77
14383;BME280;7275;50.328;8.720;2023-02-20T10:32:55;100483.97;;;24.89;36.44
14383;BME280;7275;50.328;8.720;2023-02-20T10:35:31;100476.47;;;25.24;36.32
14383;BME280;7275;50.328;8.720;2023-02-20T10:38:06;100472.72;;;25.57;35.79
14383;BME280;7275;50.328;8.720;2023-02-20T10:40:38;100484.56;;;25.86;35.74
14383;BME280;7275;50.328;8.720;2023-02-20T10:43:13;100470.19;;;26.16;35.06
14383;BME280;7275;50.328;8.720;2023-02-20T10:45:50;100463.72;;;26.47;34.89
14383;BME280;7275;50.328;8.720;2023-02-20T10:48:21;100454.94;;;26.73;34.17
14383;BME280;7275;50.328;8.720;2023-02-20T10:50:54;100455.63;;;26.85;33.83
14383;BME280;7275;50.328;8.720;2023-02-20T10:53:30;100451.63;;;26.89;33.50
14383;BME280;7275;50.328;8.720;2023-02-20T10:56:07;100457.06;;;27.08;33.71
14383;BME280;7275;50.328;8.720;2023-02-20T10:58:40;100463.78;;;27.42;32.81
14383;BME280;7275;50.328;8.720;2023-02-20T11:01:13;100460.84;;;27.73;32.24
14383;BME280;7275;50.328;8.720;2023-02-20T11:03:48;100443.31;;;27.94;31.91
14383;BME280;7275;50.328;8.720;2023-02-20T11:06:20;100434.41;;;28.11;31.88
14383;BME280;7275;50.328;8.720;2023-02-20T11:08:49;100424.56;;;28.28;31.99
14383;BME280;7275;50.328;8.720;2023-02-20T11:11:24;100426.41;;;28.55;31.41
14383;BME280;7275;50.328;8.720;2023-02-20T11:13:52;100420.00;;;28.73;30.97
14383;BME280;7275;50.328;8.720;2023-02-20T11:16:24;100421.69;;;28.92;30.56
14383;BME280;7275;50.328;8.720;2023-02-20T11:19:02;100406.34;;;29.08;31.02
14383;BME280;7275;50.328;8.720;2023-02-20T11:21:33;100407.69;;;29.22;29.99
14383;BME280;7275;50.328;8.720;2023-02-20T11:24:17;100408.19;;;29.43;30.54
14383;BME280;7275;50.328;8.720;2023-02-20T11:26:47;100396.81;;;29.73;30.26
14383;BME280;7275;50.328;8.720;2023-02-20T11:29:18;100405.94;;;29.98;29.91
14383;BME280;7275;50.328;8.720;2023-02-20T11:31:49;100389.13;;;30.19;29.08
14383;BME280;7275;50.328;8.720;2023-02-20T11:34:19;100394.28;;;30.22;28.77
14383;BME280;7275;50.328;8.720;2023-02-20T11:36:48;100397.94;;;30.30;28.63
14383;BME280;7275;50.328;8.720;2023-02-20T11:39:23;100394.22;;;30.39;28.46
14383;BME280;7275;50.328;8.720;2023-02-20T11:42:05;100389.88;;;30.21;28.08
14383;BME280;7275;50.328;8.720;2023-02-20T11:44:37;100387.75;;;30.07;28.30
14383;BME280;7275;50.328;8.720;2023-02-20T11:47:22;100381.56;;;29.96;28.36
14383;BME280;7275;50.328;8.720;2023-02-20T11:50:08;100374.28;;;30.05;28.34
14383;BME280;7275;50.328;8.720;2023-02-20T11:52:56;100378.06;;;30.12;27.77
14383;BME280;7275;50.328;8.720;2023-02-20T11:55:25;100364.56;;;30.11;27.52
14383;BME280;7275;50.328;8.720;2023-02-20T11:57:54;100373.63;;;30.11;27.55
14383;BME280;7275;50.328;8.720;2023-02-20T12:00:24;100360.31;;;30.08;27.33
14383;BME280;7275;50.328;8.720;2023-02-20T12:02:55;100359.47;;;30.16;27.29
14383;BME280;7275;50.328;8.720;2023-02-20T12:05:36;100372.63;;;30.20;27.15
14383;BME280;7275;50.328;8.720;2023-02-20T12:08:26;100360.19;;;30.26;27.54
14383;BME280;7275;50.328;8.720;2023-02-20T12:10:56;100363.81;;;30.34;26.95
14383;BME280;7275;50.328;8.720;2023-02-20T12:13:26;100367.91;;;30.30;26.96
14383;BME280;7275;50.328;8.720;2023-02-20T12:15:59;100361.59;;;30.30;26.96
14383;BME280;7275;50.328;8.720;2023-02-20T12:18:40;100354.09;;;30.32;26.58
14383;BME280;7275;50.328;8.720;2023-02-20T12:21:25;100356.81;;;30.32;26.72
14383;BME280;7275;50.328;8.720;2023-02-20T12:24:02;100350.69;;;30.46;26.82
14383;BME280;7275;50.328;8.720;2023-02-20T12:26:41;100348.69;;;30.56;26.74
14383;BME280;7275;50.328;8.720;2023-02-20T12:29:21;100341.19;;;30.58;26.55
14383;BME280;7275;50.328;8.720;2023-02-20T12:32:02;100337.75;;;30.72;26.40
14383;BME280;7275;50.328;8.720;2023-02-20T12:34:43;100319.03;;;30.85;25.92
14383;BME280;7275;50.328;8.720;2023-02-20T12:37:19;100311.84;;;31.08;26.07
14383;BME280;7275;50.328;8.720;2023-02-20T12:39:59;100314.66;;;31.39;25.84
14383;BME280;7275;50.328;8.720;2023-02-20T12:42:34;100306.50;;;31.78;25.53
14383;BME280;7275;50.328;8.720;2023-02-20T12:45:20;100293.69;;;32.09;25.68
14383;BME280;7275;50.328;8.720;2023-02-20T12:48:01;100291.94;;;32.47;25.23
14383;BME280;7275;50.328;8.720;2023-02-20T12:50:46;100285.44;;;32.85;24.80
14383;BME280;7275;50.328;8.720;2023-02-20T12:53:28;100276.06;;;33.02;23.90
14383;BME280;7275;50.328;8.720;2023-02-20T12:56:06;100267.44;;;33.05;24.02
14383;BME280;7275;50.328;8.720;2023-02-20T12:58:46;100260.44;;;33.17;24.10
14383;BME280;7275;50.328;8.720;2023-02-20T13:01:15;100257.06;;;33.30;23.73
14383;BME280;7275;50.328;8.720;2023-02-20T13:04:00;100248.66;;;33.46;24.04
14383;BME280;7275;50.328;8.720;2023-02-20T13:06:34;100262.75;;;33.57;23.42
14383;BME280;7275;50.328;8.720;2023-02-20T13:09:10;100239.50;;;33.53;22.83
14383;BME280;7275;50.328;8.720;2023-02-20T13:11:49;100237.47;;;33.76;22.85
14383;BME280;7275;50.328;8.720;2023-02-20T13:14:27;100235.13;;;33.95;22.97
14383;BME280;7275;50.328;8.720;2023-02-20T13:17:02;100224.91;;;34.03;22.42
14383;BME280;7275;50.328;8.720;2023-02-20T13:19:39;100229.53;;;34.03;22.49
14383;BME280;7275;50.328;8.720;2023-02-20T13:22:09;100219.31;;;33.97;22.17
14383;BME280;7275;50.328;8.720;2023-02-20T13:24:38;100219.97;;;33.99;21.85
14383;BME280;7275;50.328;8.720;2023-02-20T13:27:07;100215.38;;;34.20;22.22